createdAt,value
2019-02-07T00:01:22.836Z,25.63
2019-02-07T00:03:57.597Z,26.10
2019-02-07T00:06:27.125Z,27.40
2019-02-07T00:08:56.553Z,28.20
2019-02-07T00:11:25.990Z,28.03
2019-02-07T00:13:58.453Z,28.73
2019-02-07T00:16:28.036Z,29.10
2019-02-07T00:18:57.594Z,27.17
2019-02-07T00:21:27.003Z,28.80
2019-02-07T00:23:56.444Z,26.93
2019-02-07T00:26:25.913Z,27.67
2019-02-07T00:28:55.318Z,27.07
2019-02-07T00:31:24.836Z,25.13
2019-02-07T00:33:54.323Z,28.27
2019-02-07T00:36:26.978Z,28.27
2019-02-07T00:38:56.646Z,27.37
2019-02-07T00:41:26.162Z,29.73
2019-02-07T00:43:56.150Z,31.03
2019-02-07T00:46:25.626Z,29.47
2019-02-07T00:48:55.100Z,29.57
2019-02-07T00:51:24.558Z,31.27
2019-02-07T00:53:53.981Z,29.57
2019-02-07T00:56:34.312Z,29.60
2019-02-07T00:59:11.503Z,31.10
2019-02-07T01:01:40.917Z,0.00
2019-02-07T01:04:10.415Z,0.10
2019-02-07T01:06:39.810Z,0.10
2019-02-07T01:09:09.675Z,0.00
2019-02-07T01:11:39.100Z,0.00
2019-02-07T01:14:08.533Z,0.00
2019-02-07T01:16:37.932Z,0.00
2019-02-07T01:19:08.979Z,0.67
2019-02-07T01:21:38.383Z,0.10
2019-02-07T01:24:08.191Z,0.10
2019-02-07T01:26:37.599Z,0.00
2019-02-07T01:29:11.362Z,0.37
2019-02-07T01:31:40.852Z,0.53
2019-02-07T01:34:10.222Z,0.00
2019-02-07T01:36:40.383Z,0.10
2019-02-07T01:39:10.098Z,0.00
2019-02-07T01:41:53.380Z,0.00
2019-02-07T01:44:25.441Z,0.10
2019-02-07T01:46:54.856Z,0.10
2019-02-07T01:49:24.660Z,0.00
2019-02-07T01:51:54.163Z,29.23
2019-02-07T01:54:41.551Z,31.80
2019-02-07T01:57:11.052Z,33.17
2019-02-07T01:59:40.469Z,34.73
2019-02-07T02:02:09.916Z,36.10
2019-02-07T02:04:39.344Z,37.60
2019-02-07T02:07:10.763Z,36.77
2019-02-07T02:09:41.292Z,37.73
2019-02-07T02:12:12.537Z,38.13
2019-02-07T02:14:59.717Z,38.93
2019-02-07T02:17:29.261Z,39.70
2019-02-07T02:19:58.708Z,41.07
2019-02-07T02:22:29.334Z,42.77
2019-02-07T02:25:00.201Z,44.47
2019-02-07T02:27:29.749Z,42.70
2019-02-07T02:29:59.149Z,42.73
2019-02-07T02:32:28.566Z,43.37
2019-02-07T02:34:58.018Z,45.30
2019-02-07T02:37:27.802Z,49.77
2019-02-07T02:40:16.120Z,48.50
2019-02-07T02:42:45.549Z,49.07
2019-02-07T02:45:17.775Z,48.27
2019-02-07T02:47:47.219Z,49.50
2019-02-07T02:50:18.906Z,46.93
2019-02-07T02:52:48.492Z,45.57
2019-02-07T02:55:19.618Z,0.20
2019-02-07T02:57:49.192Z,0.10
2019-02-07T03:00:44.401Z,0.00
2019-02-07T03:03:21.586Z,0.10
2019-02-07T03:05:52.667Z,0.10
2019-02-07T03:08:26.552Z,0.10
2019-02-07T03:10:57.932Z,0.10
2019-02-07T03:13:44.066Z,0.10
2019-02-07T03:16:30.297Z,0.10
2019-02-07T03:19:01.565Z,0.20
2019-02-07T03:21:32.574Z,47.13
2019-02-07T03:24:11.504Z,44.17
2019-02-07T03:26:42.691Z,42.13
2019-02-07T03:29:17.590Z,39.30
2019-02-07T03:31:49.659Z,38.03
2019-02-07T03:34:20.735Z,39.43
2019-02-07T03:36:51.765Z,37.67
2019-02-07T03:39:22.969Z,35.07
2019-02-07T03:41:58.580Z,34.63
2019-02-07T03:44:29.665Z,33.30
2019-02-07T03:47:00.688Z,34.20
2019-02-07T03:49:31.696Z,33.83
2019-02-07T03:52:02.705Z,32.73
2019-02-07T03:54:34.184Z,30.93
2019-02-07T04:00:18.274Z,29.63
2019-02-07T04:02:49.292Z,29.13
2019-02-07T04:05:20.338Z,28.87
2019-02-07T04:07:58.663Z,27.93
2019-02-07T04:10:29.713Z,28.53
2019-02-07T04:13:00.891Z,26.70
2019-02-07T04:15:32.269Z,24.03
2019-02-07T04:18:04.924Z,26.43
2019-02-07T04:20:36.068Z,25.37
2019-02-07T04:23:07.413Z,25.60
2019-02-07T04:25:56.741Z,25.27
2019-02-07T04:28:27.730Z,24.63
2019-02-07T04:30:58.821Z,23.03
2019-02-07T04:33:30.098Z,24.73
2019-02-07T04:36:03.770Z,24.10
2019-02-07T04:38:43.053Z,23.80
2019-02-07T04:41:18.962Z,22.77
2019-02-07T04:43:49.964Z,23.10
2019-02-07T04:46:27.180Z,23.37
2019-02-07T04:48:56.537Z,22.27
2019-02-07T04:51:27.584Z,21.90
2019-02-07T04:53:58.764Z,23.80
2019-02-07T04:56:29.774Z,21.60
2019-02-07T04:59:27.496Z,22.13
2019-02-07T05:01:58.507Z,22.20
2019-02-07T05:04:29.517Z,20.97
2019-02-07T05:07:06.913Z,22.47
2019-02-07T05:09:37.936Z,22.17
2019-02-07T05:12:08.990Z,20.87
2019-02-07T05:14:42.976Z,22.70
2019-02-07T05:17:17.320Z,20.10
2019-02-07T05:19:48.328Z,22.07
2019-02-07T05:22:20.426Z,21.03
2019-02-07T05:24:51.466Z,21.33
2019-02-07T05:27:22.481Z,21.37
2019-02-07T05:29:56.579Z,22.40
2019-02-07T05:32:46.378Z,23.37
2019-02-07T05:35:17.446Z,21.60
2019-02-07T05:37:49.816Z,22.73
2019-02-07T05:40:20.972Z,23.67
2019-02-07T05:42:52.362Z,21.63
2019-02-07T05:45:25.041Z,22.60
2019-02-07T05:47:56.132Z,22.03
2019-02-07T05:50:27.179Z,22.20
2019-02-07T05:52:58.967Z,21.40
2019-02-07T05:55:47.886Z,21.83
2019-02-07T05:58:18.958Z,23.30
2019-02-07T06:00:49.989Z,21.67
2019-02-07T06:03:39.391Z,23.30
2019-02-07T06:06:28.283Z,21.23
2019-02-07T06:09:00.066Z,21.10
2019-02-07T06:11:31.128Z,21.60
2019-02-07T06:14:02.370Z,21.37
2019-02-07T06:16:35.046Z,20.07
2019-02-07T06:19:06.209Z,20.40
2019-02-07T06:21:37.638Z,19.93
2019-02-07T06:24:08.684Z,20.77
2019-02-07T06:26:39.728Z,18.97
2019-02-07T06:29:10.815Z,19.53
2019-02-07T06:31:44.667Z,19.90
2019-02-07T06:34:16.240Z,18.70
2019-02-07T06:36:47.605Z,18.13
2019-02-07T06:39:18.674Z,19.47
2019-02-07T06:41:49.802Z,17.83
2019-02-07T06:44:21.213Z,18.90
2019-02-07T06:46:55.478Z,18.50
2019-02-07T06:49:26.579Z,17.77
2019-02-07T06:51:58.065Z,17.83
2019-02-07T06:54:32.370Z,17.90
2019-02-07T06:57:05.023Z,18.40
2019-02-07T06:59:36.069Z,18.87
2019-02-07T07:02:07.089Z,20.00
2019-02-07T07:04:41.137Z,19.50
2019-02-07T07:07:21.176Z,21.30
2019-02-07T07:09:52.264Z,21.87
2019-02-07T07:12:23.269Z,23.90
2019-02-07T07:15:02.084Z,25.23
2019-02-07T07:17:38.909Z,26.27
2019-02-07T07:20:22.986Z,25.93
2019-02-07T07:23:01.713Z,26.60
2019-02-07T07:25:37.833Z,27.30
2019-02-07T07:28:10.282Z,27.90
2019-02-07T07:30:41.426Z,27.10
2019-02-07T07:33:12.428Z,27.33
2019-02-07T07:35:48.626Z,26.53
2019-02-07T07:38:20.052Z,27.93
2019-02-07T07:40:51.080Z,26.33
2019-02-07T07:43:22.081Z,27.27
2019-02-07T07:45:53.606Z,27.50
2019-02-07T07:48:27.438Z,28.60
2019-02-07T07:50:58.637Z,26.70
2019-02-07T07:56:40.033Z,25.90
2019-02-07T07:59:23.983Z,25.67
2019-02-07T08:02:03.255Z,24.07
2019-02-07T08:04:36.879Z,24.33
2019-02-07T08:07:08.127Z,23.77
2019-02-07T08:09:48.643Z,25.73
2019-02-07T08:12:20.026Z,24.00
2019-02-07T08:14:51.133Z,23.23
2019-02-07T08:17:22.694Z,22.83
2019-02-07T08:19:56.321Z,22.50
2019-02-07T08:22:27.436Z,22.80
2019-02-07T08:24:58.445Z,23.97
2019-02-07T08:27:29.498Z,23.43
2019-02-07T08:30:00.910Z,23.70
2019-02-07T08:32:36.810Z,24.63
2019-02-07T08:35:08.167Z,25.30
2019-02-07T08:37:39.217Z,25.77
2019-02-07T08:40:12.658Z,25.73
2019-02-07T08:42:46.363Z,27.83
2019-02-07T08:45:17.424Z,26.87
2019-02-07T08:47:58.456Z,26.70
2019-02-07T08:50:24.311Z,26.77
2019-02-07T08:52:57.655Z,22.07
2019-02-07T08:55:28.744Z,17.63
2019-02-07T08:57:59.813Z,16.23
2019-02-07T09:00:31.375Z,14.07
2019-02-07T09:03:04.052Z,12.00
2019-02-07T09:05:35.417Z,11.70
2019-02-07T09:08:09.708Z,11.20
2019-02-07T09:10:40.727Z,10.23
2019-02-07T09:13:14.693Z,10.63
2019-02-07T09:15:45.710Z,7.67
2019-02-07T09:18:16.758Z,7.07
2019-02-07T09:20:47.883Z,5.17
2019-02-07T09:23:19.046Z,3.40
2019-02-07T09:25:50.035Z,3.70
2019-02-07T09:28:21.093Z,3.10
2019-02-07T09:30:52.101Z,3.57
2019-02-07T09:36:33.579Z,4.23
2019-02-07T09:39:04.616Z,3.53
2019-02-07T09:41:38.670Z,4.03
2019-02-07T09:44:09.831Z,3.83
2019-02-07T09:46:48.691Z,4.73
2019-02-07T09:49:20.150Z,3.93
2019-02-07T09:52:01.704Z,4.30
2019-02-07T09:54:50.718Z,4.40
2019-02-07T09:57:21.740Z,4.50
2019-02-07T09:59:52.788Z,4.60
2019-02-07T10:02:42.007Z,4.60
2019-02-07T10:05:14.009Z,5.63
2019-02-07T10:07:45.103Z,6.03
2019-02-07T10:10:16.218Z,4.67
2019-02-07T10:12:47.243Z,4.60
2019-02-07T10:15:18.292Z,4.87
2019-02-07T10:17:49.832Z,4.90
2019-02-07T10:20:28.272Z,4.40
2019-02-07T10:23:03.915Z,4.43
2019-02-07T10:25:37.850Z,4.67
2019-02-07T10:28:08.965Z,4.90
2019-02-07T10:30:40.011Z,4.73
2019-02-07T10:33:23.842Z,5.60
2019-02-07T10:36:00.612Z,5.43
2019-02-07T10:38:32.065Z,4.87
2019-02-07T10:41:03.114Z,5.17
2019-02-07T10:43:38.672Z,4.57
2019-02-07T10:46:09.761Z,5.43
2019-02-07T10:48:46.675Z,4.70
2019-02-07T10:51:19.197Z,5.20
2019-02-07T10:53:51.896Z,4.73
2019-02-07T10:56:23.014Z,5.40
2019-02-07T10:59:01.815Z,4.47
2019-02-07T11:01:37.591Z,5.00
2019-02-07T11:04:08.651Z,4.33
2019-02-07T11:06:39.649Z,5.03
2019-02-07T11:09:10.726Z,4.77
2019-02-07T11:11:41.836Z,4.90
2019-02-07T11:14:21.614Z,4.53
2019-02-07T11:16:52.603Z,4.60
2019-02-07T11:19:27.309Z,4.97
2019-02-07T11:21:58.397Z,4.80
2019-02-07T11:24:29.636Z,4.70
2019-02-07T11:30:17.034Z,4.37
2019-02-07T11:32:48.108Z,4.63
2019-02-07T11:35:19.121Z,5.00
2019-02-07T11:37:50.131Z,4.43
2019-02-07T11:40:21.175Z,5.17
2019-02-07T11:42:53.934Z,4.67
2019-02-07T11:45:35.791Z,5.00
2019-02-07T11:48:06.859Z,4.63
2019-02-07T11:50:40.654Z,4.70
2019-02-07T11:53:21.897Z,4.10
2019-02-07T11:56:11.232Z,4.80
2019-02-07T11:58:42.252Z,4.27
2019-02-07T12:01:13.262Z,5.40
2019-02-07T12:03:47.052Z,4.50
2019-02-07T12:06:18.315Z,4.03
2019-02-07T12:08:52.408Z,3.97
2019-02-07T12:11:33.072Z,3.63
2019-02-07T12:14:04.113Z,3.63
2019-02-07T12:16:39.677Z,4.20
2019-02-07T12:19:17.741Z,4.23
2019-02-07T12:21:51.158Z,4.27
2019-02-07T12:24:22.170Z,3.73
2019-02-07T12:26:53.223Z,3.73
2019-02-07T12:29:27.085Z,4.07
2019-02-07T12:32:01.833Z,3.53
2019-02-07T12:34:50.909Z,3.73
2019-02-07T12:37:24.827Z,4.47
2019-02-07T12:39:56.078Z,3.90
2019-02-07T12:42:27.157Z,3.43
2019-02-07T12:44:58.241Z,3.80
2019-02-07T12:47:41.880Z,3.70
2019-02-07T12:50:12.999Z,4.70
2019-02-07T12:52:47.288Z,3.57
2019-02-07T12:55:18.591Z,2.90
2019-02-07T12:57:49.631Z,3.70
2019-02-07T13:00:23.093Z,3.70
2019-02-07T13:03:00.220Z,3.23
2019-02-07T13:05:31.353Z,3.33
2019-02-07T13:08:02.362Z,3.30
2019-02-07T13:10:34.988Z,3.30
2019-02-07T13:13:06.824Z,3.53
2019-02-07T13:15:38.251Z,3.07
2019-02-07T13:18:09.419Z,3.53
2019-02-07T13:20:40.437Z,2.97
2019-02-07T13:23:11.602Z,3.43
2019-02-07T13:25:45.312Z,3.87
2019-02-07T13:28:21.292Z,2.80
2019-02-07T13:30:52.425Z,3.33
2019-02-07T13:33:26.191Z,3.33
2019-02-07T13:35:57.289Z,3.13
2019-02-07T13:38:28.417Z,3.13
2019-02-07T13:40:59.495Z,3.03
2019-02-07T13:43:30.572Z,3.23
2019-02-07T13:46:10.310Z,3.10
2019-02-07T13:48:43.000Z,3.10
2019-02-07T13:51:18.598Z,3.40
2019-02-07T13:53:49.963Z,3.67
2019-02-07T13:56:21.238Z,3.37
2019-02-07T13:58:52.463Z,3.13
2019-02-07T14:01:25.916Z,3.40
2019-02-07T14:03:56.953Z,3.43
2019-02-07T14:06:30.588Z,3.07
2019-02-07T14:09:02.288Z,3.40
2019-02-07T14:11:40.521Z,3.27
2019-02-07T14:14:11.544Z,3.20
2019-02-07T14:16:42.584Z,3.30
2019-02-07T14:19:21.410Z,3.20
2019-02-07T14:21:52.491Z,2.83
2019-02-07T14:24:32.283Z,2.70
2019-02-07T14:27:06.124Z,2.87
2019-02-07T14:29:37.133Z,2.73
2019-02-07T14:32:08.151Z,2.50
2019-02-07T14:34:39.169Z,2.50
2019-02-07T14:37:18.011Z,2.90
2019-02-07T14:39:51.736Z,2.73
2019-02-07T14:42:27.184Z,2.40
2019-02-07T14:45:01.066Z,3.37
2019-02-07T14:47:39.182Z,2.70
2019-02-07T14:50:14.849Z,2.40
2019-02-07T14:52:45.039Z,2.60
2019-02-07T14:55:14.993Z,2.80
2019-02-07T14:57:48.388Z,2.10
2019-02-07T15:00:28.007Z,2.47
2019-02-07T15:03:00.051Z,2.67
2019-02-07T15:05:31.416Z,2.63
2019-02-07T15:08:00.688Z,2.53
2019-02-07T15:10:30.326Z,3.20
2019-02-07T15:13:06.983Z,2.87
2019-02-07T15:15:41.223Z,2.50
2019-02-07T15:18:10.653Z,3.07
2019-02-07T15:20:57.569Z,2.90
2019-02-07T15:23:39.095Z,2.60
2019-02-07T15:26:08.510Z,3.23
2019-02-07T15:28:37.904Z,2.50
2019-02-07T15:31:07.508Z,2.77
2019-02-07T15:33:41.791Z,2.70
2019-02-07T15:36:14.104Z,2.63
2019-02-07T15:38:46.607Z,2.53
2019-02-07T15:41:16.239Z,2.80
2019-02-07T15:43:47.905Z,2.50
2019-02-07T15:46:17.418Z,3.23
2019-02-07T15:48:46.911Z,3.17
2019-02-07T15:51:16.379Z,2.97
2019-02-07T15:53:45.917Z,2.87
2019-02-07T15:56:15.476Z,2.60
2019-02-07T15:58:46.783Z,2.90
2019-02-07T16:01:17.875Z,2.57
2019-02-07T16:03:53.109Z,2.60
2019-02-07T16:06:30.312Z,2.67
2019-02-07T16:09:01.448Z,3.13
2019-02-07T16:11:33.555Z,2.80
2019-02-07T16:14:07.967Z,3.10
2019-02-07T16:16:37.431Z,2.87
2019-02-07T16:19:06.906Z,2.43
2019-02-07T16:21:38.301Z,2.40
2019-02-07T16:24:07.779Z,2.20
2019-02-07T16:26:37.187Z,2.47
2019-02-07T16:29:06.629Z,2.40
2019-02-07T16:31:42.249Z,3.00
2019-02-07T16:34:25.703Z,2.53
2019-02-07T16:36:55.111Z,2.43
2019-02-07T16:39:24.698Z,3.20
2019-02-07T16:42:05.856Z,2.40
2019-02-07T16:44:32.128Z,2.60
2019-02-07T16:47:01.515Z,2.17
2019-02-07T16:49:30.950Z,2.63
2019-02-07T16:52:00.389Z,2.53
2019-02-07T16:54:32.870Z,3.00
2019-02-07T16:57:07.428Z,2.63
2019-02-07T16:59:37.034Z,2.53
2019-02-07T17:02:06.504Z,2.43
2019-02-07T17:04:53.886Z,2.67
2019-02-07T17:07:23.307Z,2.33
2019-02-07T17:10:05.647Z,2.23
2019-02-07T17:12:35.058Z,2.20
2019-02-07T17:15:07.874Z,2.70
2019-02-07T17:17:37.295Z,2.63
2019-02-07T17:20:14.629Z,2.73
2019-02-07T17:22:47.574Z,2.73
2019-02-07T17:25:17.127Z,2.73
2019-02-07T17:27:46.545Z,2.23
2019-02-07T17:30:18.238Z,2.50
2019-02-07T17:32:48.112Z,2.67
2019-02-07T17:35:18.000Z,2.40
2019-02-07T17:37:47.482Z,2.47
2019-02-07T17:40:22.495Z,2.50
2019-02-07T17:42:54.705Z,2.30
2019-02-07T17:45:26.494Z,2.30
2019-02-07T17:47:55.927Z,2.70
2019-02-07T17:50:28.510Z,3.53
2019-02-07T17:52:58.051Z,2.20
2019-02-07T17:55:27.527Z,2.70
2019-02-07T17:57:56.966Z,3.03
2019-02-07T18:00:31.854Z,2.77
2019-02-07T18:03:01.308Z,2.77
2019-02-07T18:05:30.785Z,2.47
2019-02-07T18:08:00.206Z,3.13
2019-02-07T18:10:48.977Z,2.70
2019-02-07T18:13:18.471Z,2.90
2019-02-07T18:15:47.945Z,2.50
2019-02-07T18:18:17.526Z,2.87
2019-02-07T18:20:46.991Z,2.70
2019-02-07T18:23:16.492Z,2.63
2019-02-07T18:25:46.357Z,2.93
2019-02-07T18:28:15.820Z,2.50
2019-02-07T18:30:45.378Z,2.63
2019-02-07T18:33:32.999Z,2.57
2019-02-07T18:36:06.971Z,3.03
2019-02-07T18:38:36.383Z,2.20
2019-02-07T18:41:05.869Z,2.70
2019-02-07T18:43:35.316Z,2.70
2019-02-07T18:46:04.775Z,2.20
2019-02-07T18:48:34.282Z,2.23
2019-02-07T18:51:04.082Z,2.23
2019-02-07T18:53:42.816Z,2.10
2019-02-07T18:56:16.734Z,2.07
2019-02-07T18:58:46.157Z,2.30
2019-02-07T19:01:17.425Z,2.00
2019-02-07T19:03:47.379Z,2.60
2019-02-07T19:06:16.826Z,2.10
2019-02-07T19:09:07.829Z,2.63
2019-02-07T19:11:37.253Z,2.20
2019-02-07T19:14:07.205Z,2.00
2019-02-07T19:16:36.804Z,2.50
2019-02-07T19:19:06.235Z,2.30
2019-02-07T19:21:57.227Z,2.00
2019-02-07T19:24:26.387Z,2.00
2019-02-07T19:26:55.862Z,2.40
2019-02-07T19:29:25.510Z,2.37
2019-02-07T19:32:02.489Z,2.53
2019-02-07T19:34:38.918Z,2.30
2019-02-07T19:37:09.797Z,2.43
2019-02-07T19:39:39.426Z,1.80
2019-02-07T19:42:18.611Z,2.33
2019-02-07T19:44:48.350Z,2.63
2019-02-07T19:47:18.139Z,2.47
2019-02-07T19:55:32.320Z,1.90
2019-02-07T19:58:02.151Z,1.93
2019-02-07T20:00:39.330Z,2.13
2019-02-07T20:03:31.548Z,2.40
2019-02-07T20:06:02.196Z,2.30
2019-02-07T20:08:39.190Z,2.80
2019-02-07T20:11:08.722Z,2.10
2019-02-07T20:13:38.207Z,2.60
2019-02-07T20:16:07.679Z,2.17
2019-02-07T20:18:37.238Z,2.13
2019-02-07T20:21:12.163Z,2.60
2019-02-07T20:23:43.694Z,2.10
2019-02-07T20:26:31.359Z,2.20
2019-02-07T20:29:00.948Z,2.20
2019-02-07T20:31:34.006Z,2.10
2019-02-07T20:34:07.916Z,2.40
2019-02-07T20:39:46.144Z,2.23
2019-02-07T20:42:15.537Z,2.40
2019-02-07T20:44:44.952Z,2.30
2019-02-07T20:47:14.405Z,2.20
2019-02-07T20:49:43.863Z,2.37
2019-02-07T20:52:31.405Z,2.20
2019-02-07T20:55:19.139Z,2.40
2019-02-07T20:57:50.286Z,2.67
2019-02-07T21:00:25.007Z,2.30
2019-02-07T21:02:57.314Z,2.27
2019-02-07T21:05:31.564Z,2.13
2019-02-07T21:08:06.671Z,1.90
2019-02-07T21:10:39.308Z,2.17
2019-02-07T21:13:09.183Z,2.10
2019-02-07T21:15:38.595Z,2.30
2019-02-07T21:18:08.004Z,2.20
2019-02-07T21:20:37.411Z,2.00
2019-02-07T21:23:07.020Z,2.20
2019-02-07T21:25:39.643Z,2.00
2019-02-07T21:28:11.297Z,2.07
2019-02-07T21:30:42.529Z,2.17
2019-02-07T21:33:14.704Z,2.33
2019-02-07T21:35:44.102Z,2.37
2019-02-07T21:38:31.091Z,2.57
2019-02-07T21:41:00.524Z,2.50
2019-02-07T21:43:29.932Z,2.97
2019-02-07T21:46:07.016Z,2.10
2019-02-07T21:48:36.474Z,2.30
2019-02-07T21:51:05.924Z,2.53
2019-02-07T21:53:35.385Z,2.60
2019-02-07T21:56:04.869Z,2.60
2019-02-07T21:58:34.297Z,2.20
2019-02-07T22:01:08.401Z,2.30
2019-02-07T22:03:37.754Z,2.17
2019-02-07T22:06:08.460Z,2.40
2019-02-07T22:08:38.358Z,2.23
2019-02-07T22:11:07.769Z,2.50
2019-02-07T22:13:37.317Z,2.53
2019-02-07T22:16:06.775Z,2.10
2019-02-07T22:18:54.514Z,2.20
2019-02-07T22:21:32.881Z,2.30
2019-02-07T22:24:02.325Z,2.40
2019-02-07T22:27:09.413Z,2.07
2019-02-07T22:29:41.687Z,1.97
2019-02-07T22:32:11.148Z,2.40
2019-02-07T22:34:40.633Z,2.40
2019-02-07T22:37:10.062Z,2.10
2019-02-07T22:39:58.010Z,2.40
2019-02-07T22:42:27.544Z,2.23
2019-02-07T22:45:17.283Z,2.00
2019-02-07T22:47:47.035Z,2.37
2019-02-07T22:50:18.794Z,2.30
2019-02-07T22:52:48.212Z,2.00
2019-02-07T22:55:18.011Z,2.17
2019-02-07T22:57:52.021Z,2.40
2019-02-07T23:00:27.848Z,2.13
2019-02-07T23:02:57.267Z,2.03
2019-02-07T23:05:26.693Z,2.00
2019-02-07T23:08:14.402Z,2.37
2019-02-07T23:10:44.233Z,1.97
2019-02-07T23:13:19.798Z,2.10
2019-02-07T23:15:49.729Z,2.17
2019-02-07T23:18:19.184Z,2.10
2019-02-07T23:20:48.602Z,1.73
2019-02-07T23:23:18.142Z,2.43
2019-02-07T23:25:47.520Z,2.20
2019-02-07T23:28:16.918Z,2.20
2019-02-07T23:30:46.306Z,2.10
2019-02-07T23:33:16.729Z,1.93
2019-02-07T23:35:46.154Z,2.10
2019-02-07T23:38:23.162Z,1.80
2019-02-07T23:40:57.180Z,2.20
2019-02-07T23:43:26.631Z,2.07
2019-02-07T23:46:14.539Z,2.00
2019-02-07T23:48:44.293Z,2.60
2019-02-07T23:51:32.060Z,2.17
2019-02-07T23:54:01.524Z,2.00
2019-02-07T23:56:30.948Z,2.00
2019-02-07T23:59:00.338Z,1.90
